sensor_id;sensor_type;location;lat;lon;timestamp;temperature;humidity
21928;DHT22;11128;51.096;17.190;2023-06-22T00:02:00;24.40;1.00
21928;DHT22;11128;51.096;17.190;2023-06-22T00:07:01;24.30;1.00
21928;DHT22;11128;51.096;17.190;2023-06-22T00:12:03;24.30;1.00
21928;DHT22;11128;51.096;17.190;2023-06-22T00:17:04;24.30;1.00
21928;DHT22;11128;51.096;17.190;2023-06-22T00:22:06;24.20;1.00
21928;DHT22;11128;51.096;17.190;2023-06-22T00:27:07;24.20;1.00
21928;DHT22;11128;51.096;17.190;2023-06-22T00:32:08;24.20;1.00
21928;DHT22;11128;51.096;17.190;2023-06-22T00:37:10;24.20;1.00
21928;DHT22;11128;51.096;17.190;2023-06-22T00:42:12;24.10;1.00
21928;DHT22;11128;51.096;17.190;2023-06-22T00:47:18;24.20;1.00
21928;DHT22;11128;51.096;17.190;2023-06-22T00:52:21;24.10;1.00
21928;DHT22;11128;51.096;17.190;2023-06-22T00:57:28;24.10;1.00
21928;DHT22;11128;51.096;17.190;2023-06-22T01:02:30;24.00;1.00
21928;DHT22;11128;51.096;17.190;2023-06-22T01:07:39;24.10;1.00
21928;DHT22;11128;51.096;17.190;2023-06-22T01:12:47;24.00;1.00
21928;DHT22;11128;51.096;17.190;2023-06-22T01:17:50;23.90;1.00
21928;DHT22;11128;51.096;17.190;2023-06-22T01:23:05;23.90;1.00
21928;DHT22;11128;51.096;17.190;2023-06-22T01:28:23;23.80;1.00
21928;DHT22;11128;51.096;17.190;2023-06-22T01:33:25;23.70;1.00
21928;DHT22;11128;51.096;17.190;2023-06-22T01:38:28;23.70;1.00
21928;DHT22;11128;51.096;17.190;2023-06-22T01:43:30;23.70;1.00
21928;DHT22;11128;51.096;17.190;2023-06-22T01:48:33;23.60;1.00
21928;DHT22;11128;51.096;17.190;2023-06-22T01:53:35;23.60;1.00
21928;DHT22;11128;51.096;17.190;2023-06-22T01:58:41;23.50;1.00
21928;DHT22;11128;51.096;17.190;2023-06-22T02:04:06;23.40;1.00
21928;DHT22;11128;51.096;17.190;2023-06-22T02:09:16;23.40;1.00
21928;DHT22;11128;51.096;17.190;2023-06-22T02:14:18;23.30;1.00
21928;DHT22;11128;51.096;17.190;2023-06-22T02:19:23;23.20;1.00
21928;DHT22;11128;51.096;17.190;2023-06-22T02:24:26;23.20;1.00
21928;DHT22;11128;51.096;17.190;2023-06-22T02:29:28;23.20;1.00
21928;DHT22;11128;51.096;17.190;2023-06-22T02:34:29;23.10;1.00
21928;DHT22;11128;51.096;17.190;2023-06-22T02:39:31;23.10;1.00
21928;DHT22;11128;51.096;17.190;2023-06-22T02:44:32;23.00;1.00
21928;DHT22;11128;51.096;17.190;2023-06-22T02:49:34;23.00;1.00
21928;DHT22;11128;51.096;17.190;2023-06-22T02:54:36;23.00;1.00
21928;DHT22;11128;51.096;17.190;2023-06-22T02:59:37;22.90;1.00
21928;DHT22;11128;51.096;17.190;2023-06-22T03:04:42;22.90;1.00
21928;DHT22;11128;51.096;17.190;2023-06-22T03:09:44;22.90;1.00
21928;DHT22;11128;51.096;17.190;2023-06-22T03:14:45;22.80;1.00
21928;DHT22;11128;51.096;17.190;2023-06-22T03:19:47;22.80;1.00
21928;DHT22;11128;51.096;17.190;2023-06-22T03:24:48;22.80;1.00
21928;DHT22;11128;51.096;17.190;2023-06-22T03:29:50;22.70;1.00
21928;DHT22;11128;51.096;17.190;2023-06-22T03:34:51;22.70;1.00
21928;DHT22;11128;51.096;17.190;2023-06-22T03:39:53;22.70;1.00
21928;DHT22;11128;51.096;17.190;2023-06-22T03:44:54;22.60;1.00
21928;DHT22;11128;51.096;17.190;2023-06-22T03:49:56;22.60;1.00
21928;DHT22;11128;51.096;17.190;2023-06-22T03:54:58;22.60;1.00
21928;DHT22;11128;51.096;17.190;2023-06-22T03:59:59;22.60;1.00
21928;DHT22;11128;51.096;17.190;2023-06-22T04:05:01;22.60;26.10
21928;DHT22;11128;51.096;17.190;2023-06-22T04:10:04;22.60;1.00
21928;DHT22;11128;51.096;17.190;2023-06-22T04:15:06;22.60;68.30
21928;DHT22;11128;51.096;17.190;2023-06-22T04:20:08;22.50;99.90
21928;DHT22;11128;51.096;17.190;2023-06-22T04:25:09;22.50;99.90
21928;DHT22;11128;51.096;17.190;2023-06-22T04:30:11;22.40;1.00
21928;DHT22;11128;51.096;17.190;2023-06-22T04:35:13;22.50;1.00
21928;DHT22;11128;51.096;17.190;2023-06-22T04:40:17;22.50;99.90
21928;DHT22;11128;51.096;17.190;2023-06-22T04:45:19;22.50;99.90
21928;DHT22;11128;51.096;17.190;2023-06-22T04:50:21;22.40;1.00
21928;DHT22;11128;51.096;17.190;2023-06-22T04:55:24;22.50;1.00
21928;DHT22;11128;51.096;17.190;2023-06-22T05:00:26;22.40;1.00
21928;DHT22;11128;51.096;17.190;2023-06-22T05:05:30;22.30;1.00
21928;DHT22;11128;51.096;17.190;2023-06-22T05:10:31;22.40;1.00
21928;DHT22;11128;51.096;17.190;2023-06-22T05:15:33;22.40;99.90
21928;DHT22;11128;51.096;17.190;2023-06-22T05:20:37;22.40;1.00
21928;DHT22;11128;51.096;17.190;2023-06-22T05:25:39;22.50;99.90
21928;DHT22;11128;51.096;17.190;2023-06-22T05:30:43;22.60;1.00
21928;DHT22;11128;51.096;17.190;2023-06-22T05:35:44;22.70;99.90
21928;DHT22;11128;51.096;17.190;2023-06-22T05:40:45;22.80;99.90
21928;DHT22;11128;51.096;17.190;2023-06-22T05:45:47;22.90;99.90
21928;DHT22;11128;51.096;17.190;2023-06-22T05:50:49;23.10;99.90
21928;DHT22;11128;51.096;17.190;2023-06-22T05:55:50;23.20;1.00
21928;DHT22;11128;51.096;17.190;2023-06-22T06:00:51;23.30;1.00
21928;DHT22;11128;51.096;17.190;2023-06-22T06:05:52;23.30;1.00
21928;DHT22;11128;51.096;17.190;2023-06-22T06:10:54;23.40;99.90
21928;DHT22;11128;51.096;17.190;2023-06-22T06:15:56;23.40;99.90
21928;DHT22;11128;51.096;17.190;2023-06-22T06:20:58;23.50;1.00
21928;DHT22;11128;51.096;17.190;2023-06-22T06:25:59;23.50;99.90
21928;DHT22;11128;51.096;17.190;2023-06-22T06:31:01;23.60;99.90
21928;DHT22;11128;51.096;17.190;2023-06-22T06:36:02;23.70;99.90
21928;DHT22;11128;51.096;17.190;2023-06-22T06:41:04;23.70;99.90
21928;DHT22;11128;51.096;17.190;2023-06-22T06:46:06;23.90;99.90
21928;DHT22;11128;51.096;17.190;2023-06-22T06:51:07;24.00;99.90
21928;DHT22;11128;51.096;17.190;2023-06-22T06:56:11;24.20;99.90
21928;DHT22;11128;51.096;17.190;2023-06-22T07:01:13;24.40;99.90
21928;DHT22;11128;51.096;17.190;2023-06-22T07:06:14;24.60;56.20
21928;DHT22;11128;51.096;17.190;2023-06-22T07:11:17;24.70;1.00
21928;DHT22;11128;51.096;17.190;2023-06-22T07:16:18;24.80;1.00
21928;DHT22;11128;51.096;17.190;2023-06-22T07:21:19;24.90;1.00
21928;DHT22;11128;51.096;17.190;2023-06-22T07:26:21;25.00;1.00
21928;DHT22;11128;51.096;17.190;2023-06-22T07:31:26;25.00;1.00
21928;DHT22;11128;51.096;17.190;2023-06-22T07:36:27;25.20;1.00
21928;DHT22;11128;51.096;17.190;2023-06-22T07:41:31;25.40;1.00
21928;DHT22;11128;51.096;17.190;2023-06-22T07:46:33;25.60;1.00
21928;DHT22;11128;51.096;17.190;2023-06-22T07:51:34;25.80;1.00
21928;DHT22;11128;51.096;17.190;2023-06-22T07:56:37;26.10;1.00
21928;DHT22;11128;51.096;17.190;2023-06-22T08:01:39;26.20;99.90
21928;DHT22;11128;51.096;17.190;2023-06-22T08:06:40;26.20;99.90
21928;DHT22;11128;51.096;17.190;2023-06-22T08:11:42;26.20;99.90
21928;DHT22;11128;51.096;17.190;2023-06-22T08:16:43;26.40;99.90
21928;DHT22;11128;51.096;17.190;2023-06-22T08:21:45;26.60;99.90
21928;DHT22;11128;51.096;17.190;2023-06-22T08:26:46;26.70;99.90
21928;DHT22;11128;51.096;17.190;2023-06-22T08:31:47;27.00;99.90
21928;DHT22;11128;51.096;17.190;2023-06-22T08:36:49;27.40;99.90
21928;DHT22;11128;51.096;17.190;2023-06-22T08:41:52;27.50;99.90
21928;DHT22;11128;51.096;17.190;2023-06-22T08:46:54;27.90;99.90
21928;DHT22;11128;51.096;17.190;2023-06-22T08:51:55;28.10;98.80
21928;DHT22;11128;51.096;17.190;2023-06-22T08:56:57;28.30;86.60
21928;DHT22;11128;51.096;17.190;2023-06-22T09:01:59;28.50;90.30
21928;DHT22;11128;51.096;17.190;2023-06-22T09:07:03;28.70;41.90
21928;DHT22;11128;51.096;17.190;2023-06-22T09:12:05;28.90;1.00
21928;DHT22;11128;51.096;17.190;2023-06-22T09:17:06;29.10;1.00
21928;DHT22;11128;51.096;17.190;2023-06-22T09:22:07;29.50;1.00
21928;DHT22;11128;51.096;17.190;2023-06-22T09:27:09;29.80;1.00
21928;DHT22;11128;51.096;17.190;2023-06-22T09:32:10;29.90;1.00
21928;DHT22;11128;51.096;17.190;2023-06-22T09:37:12;29.70;1.00
21928;DHT22;11128;51.096;17.190;2023-06-22T09:42:13;29.70;1.00
21928;DHT22;11128;51.096;17.190;2023-06-22T09:47:14;29.90;1.00
21928;DHT22;11128;51.096;17.190;2023-06-22T09:52:16;30.10;1.00
21928;DHT22;11128;51.096;17.190;2023-06-22T09:57:17;30.20;1.00
21928;DHT22;11128;51.096;17.190;2023-06-22T10:02:19;30.20;1.00
21928;DHT22;11128;51.096;17.190;2023-06-22T10:07:20;30.30;1.00
21928;DHT22;11128;51.096;17.190;2023-06-22T10:12:21;30.40;1.00
21928;DHT22;11128;51.096;17.190;2023-06-22T10:17:22;30.50;1.00
21928;DHT22;11128;51.096;17.190;2023-06-22T10:22:23;30.70;1.00
21928;DHT22;11128;51.096;17.190;2023-06-22T10:27:24;30.70;1.00
21928;DHT22;11128;51.096;17.190;2023-06-22T10:32:26;30.90;1.00
21928;DHT22;11128;51.096;17.190;2023-06-22T10:37:28;31.00;1.00
21928;DHT22;11128;51.096;17.190;2023-06-22T10:42:30;31.00;1.00
21928;DHT22;11128;51.096;17.190;2023-06-22T10:47:31;31.20;1.00
21928;DHT22;11128;51.096;17.190;2023-06-22T10:52:32;31.40;1.00
21928;DHT22;11128;51.096;17.190;2023-06-22T10:57:34;31.40;1.00
21928;DHT22;11128;51.096;17.190;2023-06-22T11:02:35;31.30;1.00
21928;DHT22;11128;51.096;17.190;2023-06-22T11:07:37;31.20;1.00
21928;DHT22;11128;51.096;17.190;2023-06-22T11:12:39;31.00;1.00
21928;DHT22;11128;51.096;17.190;2023-06-22T11:17:41;30.90;1.00
21928;DHT22;11128;51.096;17.190;2023-06-22T11:22:42;31.10;1.00
21928;DHT22;11128;51.096;17.190;2023-06-22T11:27:44;31.20;1.00
21928;DHT22;11128;51.096;17.190;2023-06-22T11:32:46;31.30;1.00
21928;DHT22;11128;51.096;17.190;2023-06-22T11:37:47;31.50;1.00
21928;DHT22;11128;51.096;17.190;2023-06-22T11:42:49;31.60;1.00
21928;DHT22;11128;51.096;17.190;2023-06-22T11:47:50;31.90;1.00
21928;DHT22;11128;51.096;17.190;2023-06-22T11:52:51;32.00;1.00
21928;DHT22;11128;51.096;17.190;2023-06-22T11:57:57;32.00;1.00
21928;DHT22;11128;51.096;17.190;2023-06-22T12:03:04;32.10;1.00
21928;DHT22;11128;51.096;17.190;2023-06-22T12:08:06;32.20;1.00
21928;DHT22;11128;51.096;17.190;2023-06-22T12:13:07;32.10;1.00
21928;DHT22;11128;51.096;17.190;2023-06-22T12:18:08;32.20;1.00
21928;DHT22;11128;51.096;17.190;2023-06-22T12:23:10;32.10;1.00
21928;DHT22;11128;51.096;17.190;2023-06-22T12:28:11;32.10;1.00
21928;DHT22;11128;51.096;17.190;2023-06-22T12:33:12;32.20;1.00
21928;DHT22;11128;51.096;17.190;2023-06-22T12:38:14;32.30;1.00
21928;DHT22;11128;51.096;17.190;2023-06-22T12:43:15;32.20;1.00
21928;DHT22;11128;51.096;17.190;2023-06-22T12:48:16;32.00;1.00
21928;DHT22;11128;51.096;17.190;2023-06-22T12:53:18;32.00;1.00
21928;DHT22;11128;51.096;17.190;2023-06-22T12:58:19;32.20;1.00
21928;DHT22;11128;51.096;17.190;2023-06-22T13:03:20;32.30;1.00
21928;DHT22;11128;51.096;17.190;2023-06-22T13:08:24;32.40;1.00
21928;DHT22;11128;51.096;17.190;2023-06-22T13:13:26;32.40;1.00
21928;DHT22;11128;51.096;17.190;2023-06-22T13:18:28;32.20;1.00
21928;DHT22;11128;51.096;17.190;2023-06-22T13:23:30;32.30;1.00
21928;DHT22;11128;51.096;17.190;2023-06-22T13:28:31;32.30;1.00
21928;DHT22;11128;51.096;17.190;2023-06-22T13:33:33;32.20;1.00
21928;DHT22;11128;51.096;17.190;2023-06-22T13:38:35;32.10;1.00
21928;DHT22;11128;51.096;17.190;2023-06-22T13:43:39;32.10;1.00
21928;DHT22;11128;51.096;17.190;2023-06-22T13:48:40;32.00;1.00
21928;DHT22;11128;51.096;17.190;2023-06-22T13:53:42;31.90;1.00
21928;DHT22;11128;51.096;17.190;2023-06-22T13:58:43;32.00;1.00
21928;DHT22;11128;51.096;17.190;2023-06-22T14:03:44;31.90;1.00
21928;DHT22;11128;51.096;17.190;2023-06-22T14:08:47;31.70;1.00
21928;DHT22;11128;51.096;17.190;2023-06-22T14:13:49;31.50;1.00
21928;DHT22;11128;51.096;17.190;2023-06-22T14:18:50;31.50;1.00
21928;DHT22;11128;51.096;17.190;2023-06-22T14:23:51;31.40;1.00
21928;DHT22;11128;51.096;17.190;2023-06-22T14:28:53;31.30;1.00
21928;DHT22;11128;51.096;17.190;2023-06-22T14:33:54;31.20;1.00
21928;DHT22;11128;51.096;17.190;2023-06-22T14:38:56;31.10;1.00
21928;DHT22;11128;51.096;17.190;2023-06-22T14:43:57;31.10;1.00
21928;DHT22;11128;51.096;17.190;2023-06-22T14:48:58;31.20;1.00
21928;DHT22;11128;51.096;17.190;2023-06-22T14:54:00;31.30;1.00
21928;DHT22;11128;51.096;17.190;2023-06-22T14:59:01;31.30;1.00
21928;DHT22;11128;51.096;17.190;2023-06-22T15:04:02;31.30;1.00
21928;DHT22;11128;51.096;17.190;2023-06-22T15:09:03;31.20;1.00
21928;DHT22;11128;51.096;17.190;2023-06-22T15:14:05;31.20;1.00
21928;DHT22;11128;51.096;17.190;2023-06-22T15:19:06;31.10;1.00
21928;DHT22;11128;51.096;17.190;2023-06-22T15:24:07;31.00;1.00
21928;DHT22;11128;51.096;17.190;2023-06-22T15:29:09;30.90;1.00
21928;DHT22;11128;51.096;17.190;2023-06-22T15:34:13;30.80;1.00
21928;DHT22;11128;51.096;17.190;2023-06-22T15:39:14;30.80;1.00
21928;DHT22;11128;51.096;17.190;2023-06-22T15:44:15;30.80;1.00
21928;DHT22;11128;51.096;17.190;2023-06-22T15:49:17;30.60;1.00
21928;DHT22;11128;51.096;17.190;2023-06-22T15:54:18;30.60;1.00
21928;DHT22;11128;51.096;17.190;2023-06-22T15:59:21;30.50;1.00
21928;DHT22;11128;51.096;17.190;2023-06-22T16:04:25;30.30;1.00
21928;DHT22;11128;51.096;17.190;2023-06-22T16:09:27;30.20;1.00
21928;DHT22;11128;51.096;17.190;2023-06-22T16:14:28;30.20;1.00
21928;DHT22;11128;51.096;17.190;2023-06-22T16:19:29;30.20;1.00
21928;DHT22;11128;51.096;17.190;2023-06-22T16:24:31;30.10;1.00
21928;DHT22;11128;51.096;17.190;2023-06-22T16:29:32;30.10;1.00
21928;DHT22;11128;51.096;17.190;2023-06-22T16:34:33;30.00;1.00
21928;DHT22;11128;51.096;17.190;2023-06-22T16:39:34;29.90;1.00
21928;DHT22;11128;51.096;17.190;2023-06-22T16:44:36;29.80;1.00
21928;DHT22;11128;51.096;17.190;2023-06-22T16:49:38;29.80;1.00
21928;DHT22;11128;51.096;17.190;2023-06-22T16:54:39;29.70;1.00
21928;DHT22;11128;51.096;17.190;2023-06-22T16:59:41;29.60;1.00
21928;DHT22;11128;51.096;17.190;2023-06-22T17:04:45;29.40;1.00
21928;DHT22;11128;51.096;17.190;2023-06-22T17:09:48;29.40;1.00
21928;DHT22;11128;51.096;17.190;2023-06-22T17:14:51;29.30;1.00
21928;DHT22;11128;51.096;17.190;2023-06-22T17:19:53;29.20;1.00
21928;DHT22;11128;51.096;17.190;2023-06-22T17:24:54;29.00;1.00
21928;DHT22;11128;51.096;17.190;2023-06-22T17:30:09;29.00;1.00
21928;DHT22;11128;51.096;17.190;2023-06-22T17:35:11;28.90;1.00
21928;DHT22;11128;51.096;17.190;2023-06-22T17:40:20;28.80;1.00
21928;DHT22;11128;51.096;17.190;2023-06-22T17:45:22;28.70;1.00
21928;DHT22;11128;51.096;17.190;2023-06-22T17:50:24;28.60;1.00
21928;DHT22;11128;51.096;17.190;2023-06-22T17:55:26;28.50;1.00
21928;DHT22;11128;51.096;17.190;2023-06-22T18:00:28;28.40;1.00
21928;DHT22;11128;51.096;17.190;2023-06-22T18:05:29;28.30;1.00
21928;DHT22;11128;51.096;17.190;2023-06-22T18:10:36;28.20;1.00
21928;DHT22;11128;51.096;17.190;2023-06-22T18:15:39;28.10;1.00
21928;DHT22;11128;51.096;17.190;2023-06-22T18:20:40;28.00;1.00
21928;DHT22;11128;51.096;17.190;2023-06-22T18:25:43;27.80;1.00
21928;DHT22;11128;51.096;17.190;2023-06-22T18:30:46;27.80;1.00
21928;DHT22;11128;51.096;17.190;2023-06-22T18:35:49;27.70;1.00
21928;DHT22;11128;51.096;17.190;2023-06-22T18:40:52;27.60;1.00
21928;DHT22;11128;51.096;17.190;2023-06-22T18:45:54;27.50;1.00
21928;DHT22;11128;51.096;17.190;2023-06-22T18:51:10;27.30;1.00
21928;DHT22;11128;51.096;17.190;2023-06-22T18:56:14;27.20;1.00
21928;DHT22;11128;51.096;17.190;2023-06-22T19:01:23;27.10;1.00
21928;DHT22;11128;51.096;17.190;2023-06-22T19:12:18;26.90;1.00
21928;DHT22;11128;51.096;17.190;2023-06-22T19:17:20;26.70;1.00
21928;DHT22;11128;51.096;17.190;2023-06-22T19:22:42;26.70;1.00
21928;DHT22;11128;51.096;17.190;2023-06-22T19:27:49;26.50;1.00
21928;DHT22;11128;51.096;17.190;2023-06-22T19:32:52;26.50;1.00
21928;DHT22;11128;51.096;17.190;2023-06-22T19:37:54;26.40;1.00
21928;DHT22;11128;51.096;17.190;2023-06-22T19:42:55;26.30;1.00
21928;DHT22;11128;51.096;17.190;2023-06-22T19:47:57;26.10;1.00
21928;DHT22;11128;51.096;17.190;2023-06-22T19:52:59;25.40;1.00
21928;DHT22;11128;51.096;17.190;2023-06-22T19:58:00;26.00;1.00
21928;DHT22;11128;51.096;17.190;2023-06-22T20:03:01;25.90;1.00
21928;DHT22;11128;51.096;17.190;2023-06-22T20:08:03;25.70;1.00
21928;DHT22;11128;51.096;17.190;2023-06-22T20:13:10;25.60;1.00
21928;DHT22;11128;51.096;17.190;2023-06-22T20:18:13;25.60;1.00
21928;DHT22;11128;51.096;17.190;2023-06-22T20:23:20;25.60;1.00
21928;DHT22;11128;51.096;17.190;2023-06-22T20:28:25;25.60;1.00
21928;DHT22;11128;51.096;17.190;2023-06-22T20:33:27;25.50;1.00
21928;DHT22;11128;51.096;17.190;2023-06-22T20:38:29;25.60;1.00
21928;DHT22;11128;51.096;17.190;2023-06-22T20:43:33;25.60;1.00
21928;DHT22;11128;51.096;17.190;2023-06-22T20:48:35;25.60;1.00
21928;DHT22;11128;51.096;17.190;2023-06-22T20:53:36;25.50;1.00
21928;DHT22;11128;51.096;17.190;2023-06-22T20:58:37;25.50;1.00
21928;DHT22;11128;51.096;17.190;2023-06-22T21:03:39;25.50;1.00
21928;DHT22;11128;51.096;17.190;2023-06-22T21:08:41;25.50;1.00
21928;DHT22;11128;51.096;17.190;2023-06-22T21:13:42;25.40;1.00
21928;DHT22;11128;51.096;17.190;2023-06-22T21:18:43;25.30;1.00
21928;DHT22;11128;51.096;17.190;2023-06-22T21:23:45;25.20;1.00
21928;DHT22;11128;51.096;17.190;2023-06-22T21:28:47;25.10;1.00
21928;DHT22;11128;51.096;17.190;2023-06-22T21:33:48;25.00;1.00
21928;DHT22;11128;51.096;17.190;2023-06-22T21:38:50;24.80;1.00
21928;DHT22;11128;51.096;17.190;2023-06-22T21:43:51;24.70;1.00
21928;DHT22;11128;51.096;17.190;2023-06-22T21:48:52;24.80;1.00
21928;DHT22;11128;51.096;17.190;2023-06-22T21:53:54;24.70;1.00
21928;DHT22;11128;51.096;17.190;2023-06-22T21:58:56;24.70;1.00
21928;DHT22;11128;51.096;17.190;2023-06-22T22:03:58;24.60;1.00
21928;DHT22;11128;51.096;17.190;2023-06-22T22:09:02;24.50;1.00
21928;DHT22;11128;51.096;17.190;2023-06-22T22:14:05;24.40;1.00
21928;DHT22;11128;51.096;17.190;2023-06-22T22:19:09;24.30;1.00
21928;DHT22;11128;51.096;17.190;2023-06-22T22:24:11;24.30;1.00
21928;DHT22;11128;51.096;17.190;2023-06-22T22:29:12;24.20;1.00
21928;DHT22;11128;51.096;17.190;2023-06-22T22:34:14;24.20;1.00
21928;DHT22;11128;51.096;17.190;2023-06-22T22:39:29;24.10;1.00
21928;DHT22;11128;51.096;17.190;2023-06-22T22:44:32;24.00;1.00
21928;DHT22;11128;51.096;17.190;2023-06-22T22:49:33;24.00;1.00
21928;DHT22;11128;51.096;17.190;2023-06-22T22:54:34;23.90;1.00
21928;DHT22;11128;51.096;17.190;2023-06-22T22:59:36;23.90;1.00
21928;DHT22;11128;51.096;17.190;2023-06-22T23:04:38;23.80;1.00
21928;DHT22;11128;51.096;17.190;2023-06-22T23:09:41;23.90;1.00
21928;DHT22;11128;51.096;17.190;2023-06-22T23:14:42;23.80;1.00
21928;DHT22;11128;51.096;17.190;2023-06-22T23:19:46;23.70;1.00
21928;DHT22;11128;51.096;17.190;2023-06-22T23:24:48;23.70;1.00
21928;DHT22;11128;51.096;17.190;2023-06-22T23:29:49;23.70;1.00
21928;DHT22;11128;51.096;17.190;2023-06-22T23:34:52;23.70;1.00
21928;DHT22;11128;51.096;17.190;2023-06-22T23:39:53;23.60;1.00
21928;DHT22;11128;51.096;17.190;2023-06-22T23:44:55;23.60;1.00
21928;DHT22;11128;51.096;17.190;2023-06-22T23:49:57;23.50;1.00
21928;DHT22;11128;51.096;17.190;2023-06-22T23:54:59;23.40;1.00
